sensor_id;sensor_type;location;lat;lon;timestamp;pressure;altitude;pressure_sealevel;temperature;humidity
30714;BME280;17465;47.934;33.430;2023-04-05T00:00:04;57352.67;;;-140.43;95.92
30714;BME280;17465;47.934;33.430;2023-04-05T00:02:35;57359.03;;;-140.43;96.12
30714;BME280;17465;47.934;33.430;2023-04-05T00:05:06;57359.03;;;-140.43;96.37
30714;BME280;17465;47.934;33.430;2023-04-05T00:07:37;57350.55;;;-140.43;95.98
30714;BME280;17465;47.934;33.430;2023-04-05T00:10:07;57337.84;;;-140.43;96.38
30714;BME280;17465;47.934;33.430;2023-04-05T00:12:39;57365.38;;;-140.43;96.68
30714;BME280;17465;47.934;33.430;2023-04-05T00:15:13;57369.62;;;-140.43;96.64
30714;BME280;17465;47.934;33.430;2023-04-05T00:17:44;57353.73;;;-140.43;96.44
30714;BME280;17465;47.934;33.430;2023-04-05T00:20:37;57349.49;;;-140.43;96.52
30714;BME280;17465;47.934;33.430;2023-04-05T00:23:08;57349.49;;;-140.43;96.52
30714;BME280;17465;47.934;33.430;2023-04-05T00:25:39;57360.08;;;-140.43;96.85
30714;BME280;17465;47.934;33.430;2023-04-05T00:28:10;57360.08;;;-140.43;96.47
30714;BME280;17465;47.934;33.430;2023-04-05T00:30:41;57357.96;;;-140.43;96.32
30714;BME280;17465;47.934;33.430;2023-04-05T00:33:13;57364.32;;;-140.43;96.56
30714;BME280;17465;47.934;33.430;2023-04-05T00:35:44;57351.61;;;-140.43;96.75
30714;BME280;17465;47.934;33.430;2023-04-05T00:38:15;57350.55;;;-140.43;97.00
30714;BME280;17465;47.934;33.430;2023-04-05T00:40:46;57350.55;;;-140.43;97.00
30714;BME280;17465;47.934;33.430;2023-04-05T00:43:20;57352.67;;;-140.43;97.50
30714;BME280;17465;47.934;33.430;2023-04-05T00:45:56;57379.15;;;-140.43;96.56
30714;BME280;17465;47.934;33.430;2023-04-05T00:48:28;57379.15;;;-140.43;96.56
30714;BME280;17465;47.934;33.430;2023-04-05T00:50:58;57351.61;;;-140.43;95.97
30714;BME280;17465;47.934;33.430;2023-04-05T00:53:29;57355.85;;;-140.43;96.48
30714;BME280;17465;47.934;33.430;2023-04-05T00:56:01;57364.32;;;-140.43;95.79
30714;BME280;17465;47.934;33.430;2023-04-05T00:58:34;57346.32;;;-140.43;95.85
30714;BME280;17465;47.934;33.430;2023-04-05T01:04:00;57372.79;;;-140.43;95.77
30714;BME280;17465;47.934;33.430;2023-04-05T01:09:33;57362.20;;;-140.43;95.82
30714;BME280;17465;47.934;33.430;2023-04-05T01:12:08;57355.85;;;-140.43;95.35
30714;BME280;17465;47.934;33.430;2023-04-05T01:14:48;57347.38;;;-140.43;95.25
30714;BME280;17465;47.934;33.430;2023-04-05T01:17:26;57347.38;;;-140.43;95.25
30714;BME280;17465;47.934;33.430;2023-04-05T01:19:54;57363.26;;;-140.43;95.35
30714;BME280;17465;47.934;33.430;2023-04-05T01:28:48;57343.14;;;-140.43;95.64
30714;BME280;17465;47.934;33.430;2023-04-05T01:39:39;57373.85;;;-140.43;95.43
30714;BME280;17465;47.934;33.430;2023-04-05T01:42:09;57375.97;;;-140.43;95.33
30714;BME280;17465;47.934;33.430;2023-04-05T01:44:41;57356.91;;;-140.43;95.45
30714;BME280;17465;47.934;33.430;2023-04-05T01:47:11;57370.68;;;-140.43;95.49
30714;BME280;17465;47.934;33.430;2023-04-05T01:49:42;57370.68;;;-140.43;95.49
30714;BME280;17465;47.934;33.430;2023-04-05T01:52:13;57327.25;;;-140.43;95.75
30714;BME280;17465;47.934;33.430;2023-04-05T01:54:44;57342.08;;;-140.43;95.95
30714;BME280;17465;47.934;33.430;2023-04-05T01:57:14;57342.08;;;-140.43;95.95
30714;BME280;17465;47.934;33.430;2023-04-05T01:59:45;57388.68;;;-140.43;95.52
30714;BME280;17465;47.934;33.430;2023-04-05T02:02:16;57345.26;;;-140.43;95.40
30714;BME280;17465;47.934;33.430;2023-04-05T02:04:46;57368.55;;;-140.43;96.02
30714;BME280;17465;47.934;33.430;2023-04-05T02:07:18;57368.55;;;-140.43;96.24
30714;BME280;17465;47.934;33.430;2023-04-05T02:09:48;57373.85;;;-140.43;96.03
30714;BME280;17465;47.934;33.430;2023-04-05T02:12:19;57370.68;;;-140.43;96.78
30714;BME280;17465;47.934;33.430;2023-04-05T02:14:50;57354.79;;;-140.43;97.30
30714;BME280;17465;47.934;33.430;2023-04-05T02:17:21;57366.44;;;-140.43;97.13
30714;BME280;17465;47.934;33.430;2023-04-05T02:19:51;57395.03;;;-140.43;96.79
30714;BME280;17465;47.934;33.430;2023-04-05T02:22:23;57377.03;;;-140.43;96.13
30714;BME280;17465;47.934;33.430;2023-04-05T02:24:54;57375.97;;;-140.43;96.44
30714;BME280;17465;47.934;33.430;2023-04-05T02:27:24;57364.32;;;-140.43;96.29
30714;BME280;17465;47.934;33.430;2023-04-05T02:29:56;57364.32;;;-140.43;96.29
30714;BME280;17465;47.934;33.430;2023-04-05T02:32:27;57371.73;;;-140.43;96.10
30714;BME280;17465;47.934;33.430;2023-04-05T02:34:58;57382.32;;;-140.43;97.83
30714;BME280;17465;47.934;33.430;2023-04-05T02:37:33;57356.91;;;-140.43;97.18
30714;BME280;17465;47.934;33.430;2023-04-05T02:40:07;57327.25;;;-140.43;97.87
30714;BME280;17465;47.934;33.430;2023-04-05T02:42:39;57382.32;;;-140.43;97.64
30714;BME280;17465;47.934;33.430;2023-04-05T02:45:10;57382.32;;;-140.43;98.33
30714;BME280;17465;47.934;33.430;2023-04-05T02:47:47;57355.85;;;-140.43;97.78
30714;BME280;17465;47.934;33.430;2023-04-05T02:50:18;57357.96;;;-140.43;97.81
30714;BME280;17465;47.934;33.430;2023-04-05T02:52:55;57370.68;;;-140.43;97.96
30714;BME280;17465;47.934;33.430;2023-04-05T02:55:21;57366.44;;;-140.43;98.85
30714;BME280;17465;47.934;33.430;2023-04-05T02:57:52;57339.96;;;-140.43;99.05
30714;BME280;17465;47.934;33.430;2023-04-05T03:00:23;57370.68;;;-140.43;99.54
30714;BME280;17465;47.934;33.430;2023-04-05T03:02:54;57372.79;;;-140.43;99.33
30714;BME280;17465;47.934;33.430;2023-04-05T03:05:27;57372.79;;;-140.43;99.33
30714;BME280;17465;47.934;33.430;2023-04-05T03:07:58;57332.55;;;-140.43;98.79
30714;BME280;17465;47.934;33.430;2023-04-05T03:10:30;57332.55;;;-140.43;98.79
30714;BME280;17465;47.934;33.430;2023-04-05T03:13:01;57380.21;;;-140.43;99.43
30714;BME280;17465;47.934;33.430;2023-04-05T03:15:32;57332.55;;;-140.43;99.12
30714;BME280;17465;47.934;33.430;2023-04-05T03:18:03;57361.14;;;-140.43;99.01
30714;BME280;17465;47.934;33.430;2023-04-05T03:20:35;57362.20;;;-140.43;98.92
30714;BME280;17465;47.934;33.430;2023-04-05T03:23:07;57363.26;;;-140.43;98.41
30714;BME280;17465;47.934;33.430;2023-04-05T03:25:38;57363.26;;;-140.43;98.41
30714;BME280;17465;47.934;33.430;2023-04-05T03:28:09;57359.03;;;-140.43;98.35
30714;BME280;17465;47.934;33.430;2023-04-05T03:30:40;57363.26;;;-140.43;97.93
30714;BME280;17465;47.934;33.430;2023-04-05T03:33:11;57367.50;;;-140.43;98.93
30714;BME280;17465;47.934;33.430;2023-04-05T03:35:42;57367.50;;;-140.43;98.93
30714;BME280;17465;47.934;33.430;2023-04-05T03:38:13;57345.26;;;-140.43;99.66
30714;BME280;17465;47.934;33.430;2023-04-05T03:40:50;57373.85;;;-140.43;99.07
30714;BME280;17465;47.934;33.430;2023-04-05T03:43:16;57324.07;;;-140.43;98.45
30714;BME280;17465;47.934;33.430;2023-04-05T03:45:49;57365.38;;;-140.43;97.72
30714;BME280;17465;47.934;33.430;2023-04-05T03:48:20;57360.08;;;-140.43;98.11
30714;BME280;17465;47.934;33.430;2023-04-05T03:50:51;57365.38;;;-140.43;97.44
30714;BME280;17465;47.934;33.430;2023-04-05T03:53:25;57351.61;;;-140.43;97.07
30714;BME280;17465;47.934;33.430;2023-04-05T03:56:01;57353.73;;;-140.43;96.90
30714;BME280;17465;47.934;33.430;2023-04-05T03:58:37;57351.61;;;-140.43;97.31
30714;BME280;17465;47.934;33.430;2023-04-05T04:01:04;57380.21;;;-140.43;96.97
30714;BME280;17465;47.934;33.430;2023-04-05T04:03:36;57380.21;;;-140.43;96.97
30714;BME280;17465;47.934;33.430;2023-04-05T04:06:09;57373.85;;;-140.43;97.55
30714;BME280;17465;47.934;33.430;2023-04-05T04:08:42;57353.73;;;-140.43;97.61
30714;BME280;17465;47.934;33.430;2023-04-05T04:11:14;57346.32;;;-140.43;96.99
30714;BME280;17465;47.934;33.430;2023-04-05T04:13:46;57373.85;;;-140.43;97.13
30714;BME280;17465;47.934;33.430;2023-04-05T04:16:17;57378.09;;;-140.43;96.93
30714;BME280;17465;47.934;33.430;2023-04-05T04:18:57;57370.68;;;-140.43;96.52
30714;BME280;17465;47.934;33.430;2023-04-05T04:21:28;57356.91;;;-140.43;96.27
30714;BME280;17465;47.934;33.430;2023-04-05T04:23:59;57357.96;;;-140.43;95.97
30714;BME280;17465;47.934;33.430;2023-04-05T04:26:31;57356.91;;;-140.43;96.22
30714;BME280;17465;47.934;33.430;2023-04-05T04:29:03;57362.20;;;-140.43;95.67
30714;BME280;17465;47.934;33.430;2023-04-05T04:31:39;57362.20;;;-140.43;95.67
30714;BME280;17465;47.934;33.430;2023-04-05T04:34:14;57347.38;;;-140.43;95.10
30714;BME280;17465;47.934;33.430;2023-04-05T04:36:49;57342.08;;;-140.43;95.00
30714;BME280;17465;47.934;33.430;2023-04-05T04:39:22;57331.49;;;-140.43;94.87
30714;BME280;17465;47.934;33.430;2023-04-05T04:41:54;57364.32;;;-140.43;94.75
30714;BME280;17465;47.934;33.430;2023-04-05T04:44:28;57364.32;;;-140.43;94.75
30714;BME280;17465;47.934;33.430;2023-04-05T04:47:01;57370.68;;;-140.43;93.77
30714;BME280;17465;47.934;33.430;2023-04-05T04:49:34;57370.68;;;-140.43;93.73
30714;BME280;17465;47.934;33.430;2023-04-05T04:52:07;57369.62;;;-140.43;93.38
30714;BME280;17465;47.934;33.430;2023-04-05T04:54:38;57367.50;;;-140.43;93.05
30714;BME280;17465;47.934;33.430;2023-04-05T04:57:10;57413.04;;;-140.43;92.67
30714;BME280;17465;47.934;33.430;2023-04-05T04:59:43;57369.62;;;-140.43;92.07
30714;BME280;17465;47.934;33.430;2023-04-05T05:02:14;57362.20;;;-140.43;92.13
30714;BME280;17465;47.934;33.430;2023-04-05T05:04:46;57380.21;;;-140.43;90.61
30714;BME280;17465;47.934;33.430;2023-04-05T05:07:20;57362.20;;;-140.43;90.91
30714;BME280;17465;47.934;33.430;2023-04-05T05:10:00;57346.32;;;-140.43;90.41
30714;BME280;17465;47.934;33.430;2023-04-05T05:12:30;57346.32;;;-140.43;90.41
30714;BME280;17465;47.934;33.430;2023-04-05T05:15:01;57341.02;;;-140.43;89.20
30714;BME280;17465;47.934;33.430;2023-04-05T05:17:31;57385.50;;;-140.43;88.88
30714;BME280;17465;47.934;33.430;2023-04-05T05:20:02;57347.38;;;-140.43;89.75
30714;BME280;17465;47.934;33.430;2023-04-05T05:22:33;57347.38;;;-140.43;89.75
30714;BME280;17465;47.934;33.430;2023-04-05T05:25:07;57364.32;;;-140.43;88.56
30714;BME280;17465;47.934;33.430;2023-04-05T05:27:39;57381.27;;;-140.43;88.77
30714;BME280;17465;47.934;33.430;2023-04-05T05:30:10;57381.27;;;-140.43;88.77
30714;BME280;17465;47.934;33.430;2023-04-05T05:32:44;57357.96;;;-140.43;86.73
30714;BME280;17465;47.934;33.430;2023-04-05T05:35:17;57382.32;;;-140.43;86.69
30714;BME280;17465;47.934;33.430;2023-04-05T05:37:52;57372.79;;;-140.43;85.41
30714;BME280;17465;47.934;33.430;2023-04-05T05:40:26;57363.26;;;-140.43;84.83
30714;BME280;17465;47.934;33.430;2023-04-05T05:43:04;57363.26;;;-140.43;84.83
30714;BME280;17465;47.934;33.430;2023-04-05T05:45:35;57367.50;;;-140.43;82.06
30714;BME280;17465;47.934;33.430;2023-04-05T05:48:06;57371.73;;;-140.43;79.73
30714;BME280;17465;47.934;33.430;2023-04-05T05:50:36;57371.73;;;-140.43;78.77
30714;BME280;17465;47.934;33.430;2023-04-05T05:53:07;57371.73;;;-140.43;78.77
30714;BME280;17465;47.934;33.430;2023-04-05T05:55:37;57406.68;;;-140.43;78.02
30714;BME280;17465;47.934;33.430;2023-04-05T05:58:20;57379.15;;;-140.43;76.03
30714;BME280;17465;47.934;33.430;2023-04-05T06:01:05;57379.15;;;-140.43;76.03
30714;BME280;17465;47.934;33.430;2023-04-05T06:03:37;57420.45;;;-140.43;74.97
30714;BME280;17465;47.934;33.430;2023-04-05T06:06:08;57405.62;;;-140.43;74.91
30714;BME280;17465;47.934;33.430;2023-04-05T06:08:48;57406.68;;;-140.43;73.11
30714;BME280;17465;47.934;33.430;2023-04-05T06:11:22;57406.68;;;-140.43;73.11
30714;BME280;17465;47.934;33.430;2023-04-05T06:13:55;57410.92;;;-140.43;71.94
30714;BME280;17465;47.934;33.430;2023-04-05T06:16:27;57410.92;;;-140.43;71.94
30714;BME280;17465;47.934;33.430;2023-04-05T06:19:01;57405.62;;;-140.43;71.23
30714;BME280;17465;47.934;33.430;2023-04-05T06:21:32;57415.16;;;-140.43;70.44
30714;BME280;17465;47.934;33.430;2023-04-05T06:24:05;57428.92;;;-140.43;70.66
30714;BME280;17465;47.934;33.430;2023-04-05T06:26:36;57427.87;;;-140.43;67.70
30714;BME280;17465;47.934;33.430;2023-04-05T06:29:07;57400.33;;;-140.43;69.28
30714;BME280;17465;47.934;33.430;2023-04-05T06:31:38;57443.75;;;-140.43;67.60
30714;BME280;17465;47.934;33.430;2023-04-05T06:34:08;57443.75;;;-140.43;67.60
30714;BME280;17465;47.934;33.430;2023-04-05T06:36:39;57437.39;;;-140.43;67.29
30714;BME280;17465;47.934;33.430;2023-04-05T06:39:23;57415.16;;;-140.43;66.62
30714;BME280;17465;47.934;33.430;2023-04-05T06:41:50;57415.16;;;-140.43;66.62
30714;BME280;17465;47.934;33.430;2023-04-05T06:44:21;57417.27;;;-140.43;66.75
30714;BME280;17465;47.934;33.430;2023-04-05T06:46:51;57417.27;;;-140.43;66.75
30714;BME280;17465;47.934;33.430;2023-04-05T06:49:22;57447.99;;;-140.43;68.12
30714;BME280;17465;47.934;33.430;2023-04-05T06:51:53;57447.99;;;-140.43;68.12
30714;BME280;17465;47.934;33.430;2023-04-05T06:54:36;57469.17;;;-140.43;66.62
30714;BME280;17465;47.934;33.430;2023-04-05T06:57:06;57441.63;;;-140.43;67.93
30714;BME280;17465;47.934;33.430;2023-04-05T06:59:36;57415.16;;;-140.43;67.85
30714;BME280;17465;47.934;33.430;2023-04-05T07:02:07;57431.04;;;-140.43;66.43
30714;BME280;17465;47.934;33.430;2023-04-05T07:04:38;57431.04;;;-140.43;66.43
30714;BME280;17465;47.934;33.430;2023-04-05T07:07:09;57454.34;;;-140.43;63.93
30714;BME280;17465;47.934;33.430;2023-04-05T07:09:40;57481.88;;;-140.43;61.92
30714;BME280;17465;47.934;33.430;2023-04-05T07:12:10;57481.88;;;-140.43;61.92
30714;BME280;17465;47.934;33.430;2023-04-05T07:14:41;57463.87;;;-140.43;61.56
30714;BME280;17465;47.934;33.430;2023-04-05T07:17:13;57463.87;;;-140.43;61.56
30714;BME280;17465;47.934;33.430;2023-04-05T07:19:44;57461.76;;;-140.43;62.14
30714;BME280;17465;47.934;33.430;2023-04-05T07:22:21;57461.76;;;-140.43;62.14
30714;BME280;17465;47.934;33.430;2023-04-05T07:25:07;57491.41;;;-140.43;59.81
30714;BME280;17465;47.934;33.430;2023-04-05T07:27:59;57491.41;;;-140.43;59.81
30714;BME280;17465;47.934;33.430;2023-04-05T07:30:35;57458.58;;;-140.43;62.97
30714;BME280;17465;47.934;33.430;2023-04-05T07:33:08;57458.58;;;-140.43;62.97
30714;BME280;17465;47.934;33.430;2023-04-05T07:35:38;57469.17;;;-140.43;63.80
30714;BME280;17465;47.934;33.430;2023-04-05T07:38:14;57454.34;;;-140.43;61.97
30714;BME280;17465;47.934;33.430;2023-04-05T07:40:42;57444.81;;;-140.43;60.09
30714;BME280;17465;47.934;33.430;2023-04-05T07:43:12;57444.81;;;-140.43;60.09
30714;BME280;17465;47.934;33.430;2023-04-05T07:45:45;57474.46;;;-140.43;60.11
30714;BME280;17465;47.934;33.430;2023-04-05T07:48:16;57489.29;;;-140.43;60.52
30714;BME280;17465;47.934;33.430;2023-04-05T07:50:47;57489.29;;;-140.43;60.52
30714;BME280;17465;47.934;33.430;2023-04-05T07:53:24;57432.10;;;-140.43;61.07
30714;BME280;17465;47.934;33.430;2023-04-05T07:56:04;57432.10;;;-140.43;61.07
30714;BME280;17465;47.934;33.430;2023-04-05T07:58:38;57462.82;;;-140.43;61.22
30714;BME280;17465;47.934;33.430;2023-04-05T08:01:13;57513.65;;;-140.43;60.57
30714;BME280;17465;47.934;33.430;2023-04-05T08:03:45;57499.88;;;-140.43;59.66
30714;BME280;17465;47.934;33.430;2023-04-05T08:06:23;57499.88;;;-140.43;59.66
30714;BME280;17465;47.934;33.430;2023-04-05T08:08:53;57510.48;;;-140.43;59.70
30714;BME280;17465;47.934;33.430;2023-04-05T08:11:24;57485.05;;;-140.43;60.14
30714;BME280;17465;47.934;33.430;2023-04-05T08:13:55;57474.46;;;-140.43;59.01
30714;BME280;17465;47.934;33.430;2023-04-05T08:16:33;57474.46;;;-140.43;59.01
30714;BME280;17465;47.934;33.430;2023-04-05T08:19:09;57492.47;;;-140.43;58.58
30714;BME280;17465;47.934;33.430;2023-04-05T08:21:39;57469.17;;;-140.43;62.15
30714;BME280;17465;47.934;33.430;2023-04-05T08:24:13;57458.58;;;-140.43;62.57
30714;BME280;17465;47.934;33.430;2023-04-05T08:26:44;57438.46;;;-140.43;64.98
30714;BME280;17465;47.934;33.430;2023-04-05T08:29:19;57434.22;;;-140.43;64.32
30714;BME280;17465;47.934;33.430;2023-04-05T08:31:49;57434.22;;;-140.43;64.32
30714;BME280;17465;47.934;33.430;2023-04-05T08:34:22;57441.63;;;-140.43;63.26
30714;BME280;17465;47.934;33.430;2023-04-05T08:36:59;57447.99;;;-140.43;62.03
30714;BME280;17465;47.934;33.430;2023-04-05T08:39:34;57493.53;;;-140.43;61.18
30714;BME280;17465;47.934;33.430;2023-04-05T08:42:16;57492.47;;;-140.43;58.18
30714;BME280;17465;47.934;33.430;2023-04-05T08:44:49;57492.47;;;-140.43;58.18
30714;BME280;17465;47.934;33.430;2023-04-05T08:47:27;57482.94;;;-140.43;58.70
30714;BME280;17465;47.934;33.430;2023-04-05T08:49:58;57500.94;;;-140.43;57.68
30714;BME280;17465;47.934;33.430;2023-04-05T08:52:38;57500.94;;;-140.43;57.68
30714;BME280;17465;47.934;33.430;2023-04-05T08:55:09;57498.82;;;-140.43;58.96
30714;BME280;17465;47.934;33.430;2023-04-05T08:57:47;57498.82;;;-140.43;58.96
30714;BME280;17465;47.934;33.430;2023-04-05T09:00:13;57502.00;;;-140.43;59.33
30714;BME280;17465;47.934;33.430;2023-04-05T09:02:47;57502.00;;;-140.43;59.33
30714;BME280;17465;47.934;33.430;2023-04-05T09:05:18;57506.24;;;-140.43;59.86
30714;BME280;17465;47.934;33.430;2023-04-05T09:07:50;57490.35;;;-140.43;60.87
30714;BME280;17465;47.934;33.430;2023-04-05T09:10:28;57487.18;;;-140.43;60.88
30714;BME280;17465;47.934;33.430;2023-04-05T09:13:09;57487.18;;;-140.43;60.88
30714;BME280;17465;47.934;33.430;2023-04-05T09:15:40;57498.82;;;-140.43;61.34
30714;BME280;17465;47.934;33.430;2023-04-05T09:18:10;57479.76;;;-140.43;63.07
30714;BME280;17465;47.934;33.430;2023-04-05T09:20:42;57479.76;;;-140.43;63.07
30714;BME280;17465;47.934;33.430;2023-04-05T09:23:13;57463.87;;;-140.43;64.09
30714;BME280;17465;47.934;33.430;2023-04-05T09:25:44;57488.23;;;-140.43;63.24
30714;BME280;17465;47.934;33.430;2023-04-05T09:28:16;57458.58;;;-140.43;62.01
30714;BME280;17465;47.934;33.430;2023-04-05T09:30:49;57473.41;;;-140.43;65.38
30714;BME280;17465;47.934;33.430;2023-04-05T09:33:24;57473.41;;;-140.43;65.38
30714;BME280;17465;47.934;33.430;2023-04-05T09:36:02;57471.29;;;-140.43;63.75
30714;BME280;17465;47.934;33.430;2023-04-05T09:38:44;57469.17;;;-140.43;66.12
30714;BME280;17465;47.934;33.430;2023-04-05T09:41:14;57393.98;;;-140.43;68.58
30714;BME280;17465;47.934;33.430;2023-04-05T09:43:45;57456.46;;;-140.43;68.71
30714;BME280;17465;47.934;33.430;2023-04-05T09:49:09;57414.10;;;-140.43;68.50
30714;BME280;17465;47.934;33.430;2023-04-05T09:51:40;57414.10;;;-140.43;68.50
30714;BME280;17465;47.934;33.430;2023-04-05T09:54:11;57440.57;;;-140.43;69.23
30714;BME280;17465;47.934;33.430;2023-04-05T09:56:53;57450.11;;;-140.43;68.11
30714;BME280;17465;47.934;33.430;2023-04-05T09:59:16;57450.11;;;-140.43;68.11
30714;BME280;17465;47.934;33.430;2023-04-05T10:01:55;57415.16;;;-140.43;70.42
30714;BME280;17465;47.934;33.430;2023-04-05T10:04:25;57424.69;;;-140.43;71.93
30714;BME280;17465;47.934;33.430;2023-04-05T10:06:58;57411.98;;;-140.43;71.98
30714;BME280;17465;47.934;33.430;2023-04-05T10:09:29;57403.51;;;-140.43;71.83
30714;BME280;17465;47.934;33.430;2023-04-05T10:12:08;57408.80;;;-140.43;71.72
30714;BME280;17465;47.934;33.430;2023-04-05T10:14:40;57423.63;;;-140.43;73.51
30714;BME280;17465;47.934;33.430;2023-04-05T10:20:22;57397.15;;;-140.43;74.05
30714;BME280;17465;47.934;33.430;2023-04-05T10:28:40;57380.21;;;-140.43;80.34
30714;BME280;17465;47.934;33.430;2023-04-05T10:34:07;57405.62;;;-140.43;80.56
30714;BME280;17465;47.934;33.430;2023-04-05T10:36:56;57405.62;;;-140.43;80.56
30714;BME280;17465;47.934;33.430;2023-04-05T10:39:26;57396.09;;;-140.43;81.03
30714;BME280;17465;47.934;33.430;2023-04-05T10:44:42;57435.28;;;-140.43;83.17
30714;BME280;17465;47.934;33.430;2023-04-05T10:47:18;57402.45;;;-140.43;84.55
30714;BME280;17465;47.934;33.430;2023-04-05T10:49:51;57384.44;;;-140.43;84.98
30714;BME280;17465;47.934;33.430;2023-04-05T10:52:22;57410.92;;;-140.43;84.29
30714;BME280;17465;47.934;33.430;2023-04-05T10:54:54;57410.92;;;-140.43;84.29
30714;BME280;17465;47.934;33.430;2023-04-05T10:57:27;57391.86;;;-140.43;84.78
30714;BME280;17465;47.934;33.430;2023-04-05T10:59:59;57421.51;;;-140.43;83.22
30714;BME280;17465;47.934;33.430;2023-04-05T11:02:31;57388.68;;;-140.43;83.99
30714;BME280;17465;47.934;33.430;2023-04-05T11:05:05;57409.86;;;-140.43;84.42
30714;BME280;17465;47.934;33.430;2023-04-05T11:07:43;57415.16;;;-140.43;84.79
30714;BME280;17465;47.934;33.430;2023-04-05T11:10:18;57409.86;;;-140.43;84.03
30714;BME280;17465;47.934;33.430;2023-04-05T11:15:29;57386.56;;;-140.43;84.86
30714;BME280;17465;47.934;33.430;2023-04-05T11:18:10;57400.33;;;-140.43;84.94
30714;BME280;17465;47.934;33.430;2023-04-05T11:20:44;57406.68;;;-140.43;85.29
30714;BME280;17465;47.934;33.430;2023-04-05T11:23:18;57387.62;;;-140.43;85.04
30714;BME280;17465;47.934;33.430;2023-04-05T11:26:02;57406.68;;;-140.43;85.42
30714;BME280;17465;47.934;33.430;2023-04-05T11:28:28;57406.68;;;-140.43;85.42
30714;BME280;17465;47.934;33.430;2023-04-05T11:31:11;57417.27;;;-140.43;85.79
30714;BME280;17465;47.934;33.430;2023-04-05T11:33:57;57381.27;;;-140.43;86.00
30714;BME280;17465;47.934;33.430;2023-04-05T11:36:31;57425.75;;;-140.43;86.58
30714;BME280;17465;47.934;33.430;2023-04-05T11:39:21;57396.09;;;-140.43;86.58
30714;BME280;17465;47.934;33.430;2023-04-05T11:44:27;57409.86;;;-140.43;87.21
30714;BME280;17465;47.934;33.430;2023-04-05T11:47:08;57403.51;;;-140.43;87.12
30714;BME280;17465;47.934;33.430;2023-04-05T11:49:41;57403.51;;;-140.43;86.80
30714;BME280;17465;47.934;33.430;2023-04-05T11:52:17;57403.51;;;-140.43;86.80
30714;BME280;17465;47.934;33.430;2023-04-05T11:54:54;57400.33;;;-140.43;84.74
30714;BME280;17465;47.934;33.430;2023-04-05T11:57:40;57398.21;;;-140.43;84.92
30714;BME280;17465;47.934;33.430;2023-04-05T12:00:22;57414.10;;;-140.43;84.92
30714;BME280;17465;47.934;33.430;2023-04-05T12:03:00;57414.10;;;-140.43;84.50
30714;BME280;17465;47.934;33.430;2023-04-05T12:05:49;57405.62;;;-140.43;83.56
30714;BME280;17465;47.934;33.430;2023-04-05T12:08:21;57385.50;;;-140.43;83.27
30714;BME280;17465;47.934;33.430;2023-04-05T12:10:59;57402.45;;;-140.43;82.56
30714;BME280;17465;47.934;33.430;2023-04-05T12:13:37;57402.45;;;-140.43;82.56
30714;BME280;17465;47.934;33.430;2023-04-05T12:16:08;57399.27;;;-140.43;83.34
30714;BME280;17465;47.934;33.430;2023-04-05T12:18:40;57399.27;;;-140.43;83.34
30714;BME280;17465;47.934;33.430;2023-04-05T12:21:11;57385.50;;;-140.43;84.11
30714;BME280;17465;47.934;33.430;2023-04-05T12:23:42;57403.51;;;-140.43;84.06
30714;BME280;17465;47.934;33.430;2023-04-05T12:26:14;57420.45;;;-140.43;84.37
30714;BME280;17465;47.934;33.430;2023-04-05T12:28:58;57397.15;;;-140.43;85.47
30714;BME280;17465;47.934;33.430;2023-04-05T12:31:43;57385.50;;;-140.43;87.39
30714;BME280;17465;47.934;33.430;2023-04-05T12:34:14;57385.50;;;-140.43;87.39
30714;BME280;17465;47.934;33.430;2023-04-05T12:36:47;57385.50;;;-140.43;89.78
30714;BME280;17465;47.934;33.430;2023-04-05T12:39:17;57385.50;;;-140.43;89.78
30714;BME280;17465;47.934;33.430;2023-04-05T12:42:00;57383.38;;;-140.43;90.83
30714;BME280;17465;47.934;33.430;2023-04-05T12:47:57;57373.85;;;-140.43;91.09
30714;BME280;17465;47.934;33.430;2023-04-05T12:50:29;57377.03;;;-140.43;91.65
30714;BME280;17465;47.934;33.430;2023-04-05T12:53:05;57375.97;;;-140.43;92.08
30714;BME280;17465;47.934;33.430;2023-04-05T12:55:41;57375.97;;;-140.43;92.08
30714;BME280;17465;47.934;33.430;2023-04-05T12:58:16;57360.08;;;-140.43;92.45
30714;BME280;17465;47.934;33.430;2023-04-05T13:00:49;57371.73;;;-140.43;91.94
30714;BME280;17465;47.934;33.430;2023-04-05T13:03:26;57359.03;;;-140.43;91.74
30714;BME280;17465;47.934;33.430;2023-04-05T13:06:00;57377.03;;;-140.43;91.86
30714;BME280;17465;47.934;33.430;2023-04-05T13:08:37;57364.32;;;-140.43;91.53
30714;BME280;17465;47.934;33.430;2023-04-05T13:11:04;57364.32;;;-140.43;91.53
30714;BME280;17465;47.934;33.430;2023-04-05T13:13:36;57374.91;;;-140.43;92.33
30714;BME280;17465;47.934;33.430;2023-04-05T13:16:07;57373.85;;;-140.43;92.52
30714;BME280;17465;47.934;33.430;2023-04-05T13:18:39;57373.85;;;-140.43;92.52
30714;BME280;17465;47.934;33.430;2023-04-05T13:21:10;57390.80;;;-140.43;94.04
30714;BME280;17465;47.934;33.430;2023-04-05T13:23:44;57390.80;;;-140.43;94.04
30714;BME280;17465;47.934;33.430;2023-04-05T13:26:16;57392.91;;;-140.43;94.47
30714;BME280;17465;47.934;33.430;2023-04-05T13:28:50;57366.44;;;-140.43;93.36
30714;BME280;17465;47.934;33.430;2023-04-05T13:31:24;57349.49;;;-140.43;94.79
30714;BME280;17465;47.934;33.430;2023-04-05T13:34:05;57378.09;;;-140.43;93.25
30714;BME280;17465;47.934;33.430;2023-04-05T13:36:32;57374.91;;;-140.43;93.88
30714;BME280;17465;47.934;33.430;2023-04-05T13:39:21;57395.03;;;-140.43;94.05
30714;BME280;17465;47.934;33.430;2023-04-05T13:41:44;57349.49;;;-140.43;95.04
30714;BME280;17465;47.934;33.430;2023-04-05T13:44:23;57389.74;;;-140.43;95.10
30714;BME280;17465;47.934;33.430;2023-04-05T13:46:53;57389.74;;;-140.43;95.10